Time;durP1;ratioP1;P1;durP2;ratioP2;P2;SDS_P1;SDS_P2;PMS_P1;PMS_P2;Temp;Humidity;BMP_temperature;BMP_pressure;BME280_temperature;BME280_humidity;BME280_pressure;Samples;Min_cycle;Max_cycle;Signal;HPM_P1;HPM_P2
2023/07/01 00:00:51;;;;;;;1.08;0.75;;;15.90;99.90;;;;;;4854510;29;20067;-60
2023/07/01 00:03:19;;;;;;;3.85;1.05;;;15.90;99.90;;;;;;4845779;29;20529;-60
2023/07/01 00:05:47;;;;;;;1.67;0.82;;;15.90;99.90;;;;;;4849079;29;20056;-62
2023/07/01 00:08:15;;;;;;;1.63;0.70;;;15.90;99.90;;;;;;4853787;29;20053;-60
2023/07/01 00:10:43;;;;;;;1.95;0.80;;;15.80;99.90;;;;;;4854494;29;20406;-60
2023/07/01 00:13:11;;;;;;;2.67;0.88;;;15.80;99.90;;;;;;4873910;29;20064;-59
2023/07/01 00:15:39;;;;;;;1.08;0.60;;;15.80;99.90;;;;;;4859620;29;20045;-60
2023/07/01 00:18:07;;;;;;;1.35;0.60;;;15.70;99.90;;;;;;4849553;29;20049;-60
2023/07/01 00:20:34;;;;;;;0.70;0.60;;;15.70;99.90;;;;;;4857096;29;20514;-61
2023/07/01 00:23:02;;;;;;;1.85;0.70;;;15.70;99.90;;;;;;4857231;29;20061;-60
2023/07/01 00:25:30;;;;;;;3.40;0.95;;;15.70;99.90;;;;;;4856531;29;20049;-63
2023/07/01 00:27:57;;;;;;;0.93;0.70;;;15.60;99.90;;;;;;4852406;29;20057;-62
2023/07/01 00:30:25;;;;;;;0.77;0.77;;;15.60;99.90;;;;;;4856830;29;20049;-64
2023/07/01 00:32:53;;;;;;;3.08;0.80;;;15.60;99.90;;;;;;4845751;29;20058;-61
2023/07/01 00:35:20;;;;;;;1.60;0.77;;;15.60;99.90;;;;;;4854762;29;20050;-61
2023/07/01 00:37:48;;;;;;;1.85;0.75;;;15.50;99.90;;;;;;4855230;29;20076;-59
2023/07/01 00:40:16;;;;;;;1.40;1.00;;;15.50;99.90;;;;;;4856469;29;20053;-61
2023/07/01 00:42:45;;;;;;;1.55;0.98;;;15.50;99.90;;;;;;4871180;29;20059;-64
2023/07/01 00:45:13;;;;;;;1.40;1.08;;;15.50;99.90;;;;;;4862000;29;20045;-61
2023/07/01 00:47:41;;;;;;;1.38;1.15;;;15.50;99.90;;;;;;4850188;29;20513;-60
2023/07/01 00:50:13;;;;;;;2.80;1.02;;;15.50;99.90;;;;;;4854817;29;20500;-61
2023/07/01 00:52:42;;;;;;;3.38;1.25;;;15.50;99.90;;;;;;4856357;29;20435;-62
2023/07/01 00:55:12;;;;;;;1.90;1.00;;;15.40;99.90;;;;;;4862246;29;20056;-61
2023/07/01 00:57:39;;;;;;;2.13;1.10;;;15.40;99.90;;;;;;4856146;29;20065;-61
2023/07/01 01:00:10;;;;;;;1.92;0.90;;;15.40;99.90;;;;;;4855715;29;20297;-60
2023/07/01 01:03:21;;;;;;;0.90;0.75;;;15.40;99.90;;;;;;4846366;29;20068;-65
2023/07/01 01:06:01;;;;;;;3.00;0.88;;;15.40;99.90;;;;;;4849114;29;20068;-63
2023/07/01 01:08:40;;;;;;;1.10;0.70;;;15.40;99.90;;;;;;4854419;29;20437;-62
2023/07/01 01:11:13;;;;;;;2.78;1.10;;;15.30;99.90;;;;;;4859870;29;20075;-62
2023/07/01 01:13:43;;;;;;;1.20;1.00;;;15.30;99.90;;;;;;4873641;29;20516;-61
2023/07/01 01:16:28;;;;;;;1.13;1.00;;;15.30;99.90;;;;;;4868294;29;20414;-60
2023/07/01 01:18:58;;;;;;;1.17;0.88;;;15.30;99.90;;;;;;4851014;29;20049;-60
2023/07/01 01:21:28;;;;;;;2.08;1.20;;;15.30;99.90;;;;;;4855104;29;20061;-60
2023/07/01 01:24:00;;;;;;;2.38;1.17;;;15.30;99.90;;;;;;4854264;29;20049;-60
2023/07/01 01:26:32;;;;;;;4.20;1.00;;;15.40;99.90;;;;;;4837197;29;20494;-60
2023/07/01 01:29:00;;;;;;;2.30;1.20;;;15.30;99.90;;;;;;4849889;29;20517;-61
2023/07/01 01:31:28;;;;;;;2.03;1.20;;;15.30;99.90;;;;;;4853870;29;20083;-60
2023/07/01 01:33:56;;;;;;;3.75;0.95;;;15.30;99.90;;;;;;4856762;29;20050;-60
2023/07/01 01:36:34;;;;;;;1.25;1.15;;;15.30;99.90;;;;;;4858926;29;20409;-61
2023/07/01 01:39:05;;;;;;;2.38;1.05;;;15.30;99.90;;;;;;4872994;29;20052;-59
2023/07/01 01:41:40;;;;;;;1.70;0.98;;;15.30;99.90;;;;;;4866050;29;20064;-59
2023/07/01 01:44:13;;;;;;;6.20;1.20;;;15.60;99.90;;;;;;4859088;29;20053;-60
2023/07/01 01:46:41;;;;;;;2.67;1.27;;;15.30;99.90;;;;;;4856377;29;20056;-60
2023/07/01 01:49:12;;;;;;;1.75;1.15;;;15.20;99.90;;;;;;4859103;29;20050;-60
2023/07/01 01:51:41;;;;;;;3.42;1.23;;;15.20;99.90;;;;;;4857697;29;20045;-60
2023/07/01 01:54:11;;;;;;;4.55;1.13;;;15.20;99.90;;;;;;4870617;29;20490;-60
2023/07/01 01:56:40;;;;;;;1.10;1.00;;;15.20;99.90;;;;;;4858837;29;20383;-60
2023/07/01 01:59:08;;;;;;;1.25;1.15;;;15.20;99.90;;;;;;4857262;29;20061;-60
2023/07/01 02:01:35;;;;;;;1.65;1.20;;;15.20;99.90;;;;;;4858969;29;20670;-61
2023/07/01 02:04:04;;;;;;;2.13;1.42;;;15.20;99.90;;;;;;4859122;29;20074;-60
2023/07/01 02:06:34;;;;;;;1.15;1.00;;;15.20;99.90;;;;;;4872537;29;20498;-59
2023/07/01 02:09:04;;;;;;;3.85;1.20;;;15.20;99.90;;;;;;4856932;29;20073;-59
2023/07/01 02:11:32;;;;;;;1.17;1.08;;;15.20;99.90;;;;;;4862286;29;20064;-59
2023/07/01 02:14:00;;;;;;;2.83;1.60;;;15.20;99.90;;;;;;4856912;29;20045;-61
2023/07/01 02:16:28;;;;;;;1.65;1.30;;;15.10;99.90;;;;;;4888509;29;20046;-59
2023/07/01 02:18:56;;;;;;;1.70;1.10;;;15.10;99.90;;;;;;4879140;29;20061;-59
2023/07/01 02:21:24;;;;;;;2.75;1.30;;;15.10;99.90;;;;;;4857759;29;20383;-59
2023/07/01 02:23:52;;;;;;;1.98;1.77;;;15.10;99.90;;;;;;4857405;29;20049;-59
2023/07/01 02:26:19;;;;;;;2.05;1.50;;;15.10;99.90;;;;;;4858781;29;20061;-58
2023/07/01 02:28:47;;;;;;;1.55;1.45;;;15.10;99.90;;;;;;4858772;29;20057;-59
2023/07/01 02:31:17;;;;;;;2.20;1.30;;;15.10;99.90;;;;;;4873161;29;20060;-60
2023/07/01 02:33:45;;;;;;;4.65;1.52;;;15.00;99.90;;;;;;4872963;29;20378;-59
2023/07/01 02:36:13;;;;;;;2.65;1.50;;;15.00;99.90;;;;;;4872856;29;20426;-61
2023/07/01 02:38:41;;;;;;;5.45;2.00;;;15.00;99.90;;;;;;4860171;29;20042;-60
2023/07/01 02:41:08;;;;;;;3.25;1.40;;;15.00;99.90;;;;;;4876391;29;20426;-59
2023/07/01 02:43:36;;;;;;;2.78;1.50;;;15.00;99.90;;;;;;4858585;29;20054;-59
2023/07/01 02:46:04;;;;;;;2.00;1.40;;;14.90;99.90;;;;;;4860668;29;20060;-62
2023/07/01 02:48:31;;;;;;;3.90;1.48;;;15.00;99.90;;;;;;4861987;29;20050;-59
2023/07/01 02:50:59;;;;;;;3.33;1.60;;;14.90;99.90;;;;;;4858887;29;20050;-60
2023/07/01 02:53:27;;;;;;;2.65;1.48;;;14.90;99.90;;;;;;4862946;29;20045;-63
2023/07/01 02:55:55;;;;;;;3.22;1.55;;;14.90;99.90;;;;;;4861891;29;20041;-60
2023/07/01 02:58:23;;;;;;;1.88;1.70;;;14.90;99.90;;;;;;4861486;29;20537;-62
2023/07/01 03:00:50;;;;;;;2.60;1.50;;;14.90;99.90;;;;;;4862009;29;20049;-60
2023/07/01 03:03:18;;;;;;;3.17;1.20;;;14.90;99.90;;;;;;4861736;29;20041;-59
2023/07/01 03:05:46;;;;;;;3.00;1.30;;;14.90;99.90;;;;;;4875188;29;20049;-60
2023/07/01 03:08:13;;;;;;;1.38;1.25;;;14.80;99.90;;;;;;4875520;29;20056;-61
2023/07/01 03:10:41;;;;;;;2.70;1.52;;;14.80;99.90;;;;;;4861652;29;20064;-60
2023/07/01 03:13:09;;;;;;;3.78;1.23;;;14.80;99.90;;;;;;4878494;29;20544;-60
2023/07/01 03:15:36;;;;;;;4.82;1.48;;;14.90;99.90;;;;;;4875798;29;20509;-70
2023/07/01 03:18:05;;;;;;;1.38;1.17;;;14.80;99.90;;;;;;4861435;29;20054;-60
2023/07/01 03:20:33;;;;;;;2.15;1.20;;;14.80;99.90;;;;;;4861377;29;20060;-58
2023/07/01 03:23:00;;;;;;;4.40;1.20;;;14.90;99.90;;;;;;4861161;29;20049;-59
2023/07/01 03:25:28;;;;;;;2.15;1.00;;;14.80;99.90;;;;;;4859998;29;20409;-60
2023/07/01 03:27:59;;;;;;;1.98;0.93;;;14.80;99.90;;;;;;4859829;29;20050;-59
2023/07/01 03:30:30;;;;;;;1.08;0.80;;;14.80;99.90;;;;;;4843834;29;20057;-60
2023/07/01 03:32:58;;;;;;;1.00;0.90;;;14.80;99.90;;;;;;4859469;29;20542;-63
2023/07/01 03:35:26;;;;;;;3.22;1.25;;;14.70;99.90;;;;;;4860902;29;20045;-64
2023/07/01 03:37:54;;;;;;;1.00;0.80;;;14.80;99.90;;;;;;4860682;29;20240;-59
2023/07/01 03:40:22;;;;;;;1.42;0.77;;;14.70;99.90;;;;;;4842336;29;20053;-62
2023/07/01 03:42:49;;;;;;;3.25;0.90;;;14.80;99.90;;;;;;4876331;29;20056;-59
2023/07/01 03:45:17;;;;;;;4.22;1.15;;;14.70;99.90;;;;;;4879309;29;20602;-59
2023/07/01 03:47:45;;;;;;;1.63;1.15;;;14.70;99.90;;;;;;4879480;29;20402;-60
2023/07/01 03:50:14;;;;;;;3.42;1.13;;;14.70;99.90;;;;;;4861459;29;20061;-58
2023/07/01 03:52:42;;;;;;;4.88;1.30;;;14.70;99.90;;;;;;4860744;29;20045;-59
2023/07/01 03:55:14;;;;;;;1.58;0.90;;;14.70;99.90;;;;;;4859588;29;20042;-61
2023/07/01 03:57:41;;;;;;;2.60;1.13;;;14.70;99.90;;;;;;4860563;29;20060;-61
2023/07/01 04:00:17;;;;;;;2.25;1.10;;;14.70;99.90;;;;;;4860642;29;20482;-62
2023/07/01 04:02:49;;;;;;;4.72;1.02;;;14.70;99.90;;;;;;4860423;29;20049;-61
2023/07/01 04:05:18;;;;;;;3.90;1.10;;;14.70;99.90;;;;;;4857634;29;20056;-62
2023/07/01 04:07:48;;;;;;;2.30;0.82;;;14.70;99.90;;;;;;4860454;29;20077;-61
2023/07/01 04:10:16;;;;;;;3.45;0.93;;;14.70;99.90;;;;;;4858959;29;20053;-61
2023/07/01 04:12:44;;;;;;;4.22;0.90;;;14.70;99.90;;;;;;4875955;29;20073;-67
2023/07/01 04:15:12;;;;;;;2.47;1.17;;;14.70;99.90;;;;;;4878947;29;20390;-61
2023/07/01 04:17:42;;;;;;;7.10;1.05;;;14.70;99.90;;;;;;4860021;29;20622;-64
2023/07/01 04:20:11;;;;;;;2.90;1.10;;;14.70;99.90;;;;;;4856665;29;20057;-62
2023/07/01 04:22:39;;;;;;;0.80;0.80;;;14.70;99.90;;;;;;4860142;29;20060;-61
2023/07/01 04:25:08;;;;;;;2.47;1.02;;;14.60;99.90;;;;;;4859760;29;20049;-64
2023/07/01 04:27:36;;;;;;;7.25;1.17;;;14.60;99.90;;;;;;4858745;29;20068;-62
2023/07/01 04:30:07;;;;;;;3.25;1.23;;;14.70;99.90;;;;;;4859875;29;20064;-62
2023/07/01 04:32:36;;;;;;;1.80;1.23;;;14.60;99.90;;;;;;4860007;29;20406;-61
2023/07/01 04:35:04;;;;;;;5.35;1.27;;;14.60;99.90;;;;;;4860047;29;20085;-61
2023/07/01 04:37:32;;;;;;;1.98;0.80;;;14.70;99.90;;;;;;4859898;29;20053;-61
2023/07/01 04:40:00;;;;;;;5.78;1.00;;;14.70;99.90;;;;;;4859703;29;20081;-61
2023/07/01 04:42:28;;;;;;;0.75;0.68;;;14.70;99.90;;;;;;4860841;29;20506;-62
2023/07/01 04:44:56;;;;;;;1.88;0.60;;;14.70;99.90;;;;;;4860054;29;20409;-62
2023/07/01 04:47:24;;;;;;;5.38;0.93;;;14.60;99.90;;;;;;4853747;29;20053;-61
2023/07/01 04:49:52;;;;;;;3.10;0.80;;;14.60;99.90;;;;;;4855886;29;20049;-59
2023/07/01 04:52:22;;;;;;;3.35;0.80;;;14.60;99.90;;;;;;4837839;29;20054;-60
2023/07/01 04:54:51;;;;;;;4.38;0.75;;;14.60;99.90;;;;;;4837802;29;20053;-59
2023/07/01 04:57:19;;;;;;;5.75;0.80;;;14.60;99.90;;;;;;4840276;29;20056;-59
2023/07/01 04:59:47;;;;;;;4.63;1.00;;;14.60;99.90;;;;;;4856600;29;20172;-63
2023/07/01 05:02:15;;;;;;;3.33;0.68;;;14.60;99.90;;;;;;4850784;29;20045;-59
2023/07/01 05:04:44;;;;;;;1.75;0.75;;;14.50;99.90;;;;;;4852907;29;20053;-59
2023/07/01 05:07:12;;;;;;;4.22;0.68;;;14.50;99.90;;;;;;4851651;29;20053;-61
2023/07/01 05:09:40;;;;;;;3.15;0.90;;;14.50;99.90;;;;;;4855864;29;20457;-60
2023/07/01 05:12:08;;;;;;;4.15;0.82;;;14.60;99.90;;;;;;4858528;29;20054;-60
2023/07/01 05:14:36;;;;;;;2.15;0.77;;;14.50;99.90;;;;;;4852912;29;20053;-60
2023/07/01 05:17:04;;;;;;;3.00;0.73;;;14.50;99.90;;;;;;4853187;29;20050;-59
2023/07/01 05:19:32;;;;;;;2.80;1.10;;;14.60;99.90;;;;;;4853209;29;20489;-59
2023/07/01 05:22:00;;;;;;;1.83;0.60;;;14.50;99.90;;;;;;4854434;29;20057;-60
2023/07/01 05:24:27;;;;;;;4.00;0.70;;;14.50;99.90;;;;;;4855766;29;20610;-60
2023/07/01 05:26:55;;;;;;;2.80;0.80;;;14.50;99.90;;;;;;4855862;29;20053;-59
2023/07/01 05:29:24;;;;;;;2.90;0.60;;;14.60;99.90;;;;;;4854872;29;20049;-59
2023/07/01 05:31:53;;;;;;;3.75;1.23;;;14.60;99.90;;;;;;4850892;29;20042;-59
2023/07/01 05:34:23;;;;;;;2.90;0.73;;;14.60;99.90;;;;;;4852714;29;20049;-59
2023/07/01 05:36:51;;;;;;;5.53;0.93;;;14.50;99.90;;;;;;4853772;29;20056;-59
2023/07/01 05:39:19;;;;;;;4.35;0.73;;;14.50;99.90;;;;;;4855661;29;20622;-59
2023/07/01 05:41:47;;;;;;;5.10;0.93;;;14.50;99.90;;;;;;4863991;29;20045;-61
2023/07/01 05:44:15;;;;;;;3.22;0.70;;;14.50;99.90;;;;;;4837089;29;20863;-60
2023/07/01 05:46:42;;;;;;;1.90;0.70;;;14.50;99.90;;;;;;4850727;29;20057;-59
2023/07/01 05:49:11;;;;;;;5.32;1.20;;;14.50;99.90;;;;;;4834100;29;20058;-62
2023/07/01 05:51:38;;;;;;;4.00;0.90;;;14.50;99.90;;;;;;4834000;29;20068;-60
2023/07/01 05:54:06;;;;;;;2.58;0.77;;;14.50;99.90;;;;;;4850952;29;20049;-60
2023/07/01 05:56:34;;;;;;;2.60;0.60;;;14.50;99.90;;;;;;4852485;29;20046;-62
2023/07/01 05:59:02;;;;;;;2.55;0.60;;;14.50;99.90;;;;;;4853348;29;20057;-63
2023/07/01 06:01:30;;;;;;;7.25;1.10;;;14.60;99.90;;;;;;4842423;29;20510;-59
2023/07/01 06:03:58;;;;;;;4.43;1.17;;;14.60;99.90;;;;;;4850724;29;20081;-60
2023/07/01 06:06:26;;;;;;;4.47;0.88;;;14.60;99.90;;;;;;4853741;29;20046;-59
2023/07/01 06:08:53;;;;;;;2.58;0.70;;;14.70;99.90;;;;;;4855213;29;20056;-60
2023/07/01 06:11:21;;;;;;;2.83;0.68;;;14.70;99.90;;;;;;4861132;29;20434;-60
2023/07/01 06:13:50;;;;;;;2.55;0.65;;;14.70;99.90;;;;;;4859589;29;20762;-59
2023/07/01 06:16:19;;;;;;;2.55;0.68;;;14.80;99.90;;;;;;4854077;29;20056;-61
2023/07/01 06:18:46;;;;;;;1.05;0.60;;;14.80;99.90;;;;;;4858133;29;20076;-59
2023/07/01 06:21:14;;;;;;;3.42;0.47;;;14.90;99.90;;;;;;4856846;29;20061;-62
2023/07/01 06:23:42;;;;;;;3.22;0.80;;;15.00;99.90;;;;;;4867181;29;20080;-60
2023/07/01 06:26:10;;;;;;;2.15;0.70;;;15.00;99.90;;;;;;4871172;29;20053;-61
2023/07/01 06:28:37;;;;;;;3.67;0.60;;;15.10;99.90;;;;;;4858380;29;20045;-60
2023/07/01 06:31:07;;;;;;;2.35;0.60;;;15.20;99.90;;;;;;4852748;29;20078;-62
2023/07/01 06:33:38;;;;;;;1.75;0.73;;;15.20;99.90;;;;;;4850319;29;20064;-60
2023/07/01 06:36:06;;;;;;;2.83;0.65;;;15.30;99.90;;;;;;4859029;29;20052;-63
2023/07/01 06:38:34;;;;;;;2.17;0.52;;;15.30;99.90;;;;;;4858765;29;20409;-63
2023/07/01 06:41:02;;;;;;;3.65;0.60;;;15.40;99.90;;;;;;4873057;29;20517;-59
2023/07/01 06:43:30;;;;;;;4.32;0.57;;;15.40;99.90;;;;;;4856875;29;20049;-63
2023/07/01 06:45:59;;;;;;;4.20;0.50;;;15.40;99.90;;;;;;4853290;29;20077;-62
2023/07/01 06:48:27;;;;;;;4.90;0.97;;;15.50;99.90;;;;;;4846613;29;20059;-64
2023/07/01 06:50:54;;;;;;;2.70;0.38;;;15.50;99.90;;;;;;4855035;29;20982;-64
2023/07/01 06:53:22;;;;;;;1.90;0.50;;;15.60;99.90;;;;;;4855408;29;20053;-65
2023/07/01 06:55:50;;;;;;;2.03;0.38;;;15.60;99.90;;;;;;4855343;29;20056;-67
2023/07/01 06:58:18;;;;;;;8.23;1.02;;;15.70;99.90;;;;;;4858447;29;20502;-61
2023/07/01 07:00:45;;;;;;;3.30;0.73;;;15.80;99.90;;;;;;4857355;29;20060;-60
2023/07/01 07:03:14;;;;;;;3.50;0.40;;;15.80;99.90;;;;;;4861781;29;20050;-60
2023/07/01 07:05:42;;;;;;;0.63;0.30;;;15.90;99.90;;;;;;4855303;29;20049;-67
2023/07/01 07:08:10;;;;;;;1.70;0.40;;;15.90;99.90;;;;;;4856328;29;20046;-62
2023/07/01 07:10:38;;;;;;;1.55;0.40;;;16.00;99.90;;;;;;4858491;29;20138;-68
2023/07/01 07:13:06;;;;;;;1.45;0.50;;;16.00;99.90;;;;;;4864637;29;20053;-64
2023/07/01 07:15:34;;;;;;;1.08;0.35;;;16.20;99.90;;;;;;4858231;29;20064;-61
2023/07/01 07:18:01;;;;;;;0.88;0.30;;;16.10;99.90;;;;;;4856806;29;20053;-60
2023/07/01 07:20:30;;;;;;;4.38;0.35;;;16.20;99.90;;;;;;4858343;29;20050;-60
2023/07/01 07:22:57;;;;;;;3.97;0.43;;;16.20;99.90;;;;;;4872056;29;20058;-60
2023/07/01 07:25:26;;;;;;;1.65;0.25;;;16.30;99.90;;;;;;4856753;29;20046;-61
2023/07/01 07:27:53;;;;;;;1.65;0.35;;;16.40;99.90;;;;;;4856552;29;20056;-60
2023/07/01 07:30:22;;;;;;;1.17;0.20;;;16.40;99.90;;;;;;4857324;29;20049;-60
2023/07/01 07:32:49;;;;;;;1.15;0.45;;;16.50;99.90;;;;;;4850542;29;20421;-60
2023/07/01 07:35:18;;;;;;;0.43;0.20;;;16.50;99.90;;;;;;4857742;29;20053;-59
2023/07/01 07:37:46;;;;;;;1.52;0.30;;;16.60;99.90;;;;;;4863566;29;20052;-59
2023/07/01 07:40:14;;;;;;;1.17;0.20;;;16.70;99.90;;;;;;4857827;29;20065;-60
2023/07/01 07:42:45;;;;;;;0.60;0.40;;;16.70;99.90;;;;;;4853922;29;20046;-59
2023/07/01 07:45:17;;;;;;;1.08;0.20;;;16.80;99.90;;;;;;4839640;29;20046;-59
2023/07/01 07:47:45;;;;;;;1.70;0.43;;;16.80;99.90;;;;;;4839992;29;20050;-60
2023/07/01 07:50:13;;;;;;;0.95;0.20;;;16.90;99.90;;;;;;4851270;29;20045;-60
2023/07/01 07:52:41;;;;;;;1.55;0.40;;;17.00;99.90;;;;;;4845939;29;20064;-60
2023/07/01 07:55:09;;;;;;;2.60;0.30;;;17.00;99.90;;;;;;4855499;29;20057;-60
2023/07/01 07:57:37;;;;;;;0.43;0.10;;;17.00;99.90;;;;;;4859361;29;20585;-60
2023/07/01 08:00:05;;;;;;;1.20;0.20;;;17.00;99.90;;;;;;4876389;29;20053;-60
2023/07/01 08:02:42;;;;;;;1.80;0.30;;;17.00;99.90;;;;;;4856088;29;20498;-60
2023/07/01 08:05:17;;;;;;;2.90;0.45;;;17.00;99.90;;;;;;4853333;29;20056;-60
2023/07/01 08:07:47;;;;;;;1.67;0.20;;;17.00;99.90;;;;;;4854821;29;20108;-60
2023/07/01 08:10:18;;;;;;;0.32;0.10;;;17.00;99.90;;;;;;4857251;29;20056;-61
2023/07/01 08:12:46;;;;;;;0.28;0.10;;;17.00;99.90;;;;;;4857821;29;20101;-60
2023/07/01 08:15:14;;;;;;;1.92;0.20;;;16.90;99.90;;;;;;4856141;29;20049;-60
2023/07/01 08:17:41;;;;;;;1.88;0.30;;;16.90;99.90;;;;;;4851423;29;20053;-68
2023/07/01 08:20:10;;;;;;;1.35;0.28;;;16.90;99.90;;;;;;4838260;29;20399;-60
2023/07/01 08:22:37;;;;;;;2.30;0.45;;;16.90;99.90;;;;;;4853086;29;20046;-60
2023/07/01 08:25:06;;;;;;;4.03;0.60;;;17.00;99.90;;;;;;4856725;29;20522;-61
2023/07/01 08:27:34;;;;;;;30.17;7.32;;;17.00;99.90;;;;;;4856622;29;20041;-61
2023/07/01 08:30:01;;;;;;;14.60;2.95;;;17.10;99.90;;;;;;4856902;29;20049;-60
2023/07/01 08:32:30;;;;;;;12.13;2.92;;;17.20;99.90;;;;;;4869558;29;20056;-65
2023/07/01 08:34:57;;;;;;;14.38;3.45;;;17.30;99.90;;;;;;4855748;29;20045;-68
2023/07/01 08:37:25;;;;;;;11.95;2.75;;;17.40;99.90;;;;;;4857397;29;20136;-69
2023/07/01 08:39:53;;;;;;;6.30;1.73;;;17.60;99.90;;;;;;4856389;29;20065;-67
2023/07/01 08:42:27;;;;;;;2.30;0.73;;;17.60;99.90;;;;;;4869452;29;20048;-66
2023/07/01 08:44:56;;;;;;;5.25;0.93;;;17.70;99.90;;;;;;4856335;29;20528;-65
2023/07/01 08:47:26;;;;;;;1.58;0.57;;;17.70;99.90;;;;;;4839610;29;20056;-68
2023/07/01 08:49:55;;;;;;;3.05;0.50;;;17.80;99.90;;;;;;4854836;29;20510;-59
2023/07/01 08:52:30;;;;;;;0.75;0.28;;;17.80;99.90;;;;;;4856575;29;20052;-61
2023/07/01 08:54:57;;;;;;;0.70;0.50;;;17.90;99.90;;;;;;4856446;29;20422;-62
2023/07/01 08:57:25;;;;;;;1.70;0.50;;;17.90;99.90;;;;;;4851447;29;20049;-61
2023/07/01 08:59:53;;;;;;;0.52;0.52;;;17.90;99.90;;;;;;4844778;29;20068;-60
2023/07/01 09:02:24;;;;;;;0.70;0.30;;;18.00;99.90;;;;;;4855492;29;20045;-60
2023/07/01 09:04:51;;;;;;;1.65;0.35;;;18.10;99.90;;;;;;4840323;29;20049;-61
2023/07/01 09:07:19;;;;;;;1.48;0.10;;;18.20;99.90;;;;;;4858158;29;20065;-60
2023/07/01 09:09:47;;;;;;;0.20;0.20;;;18.30;99.90;;;;;;4855545;29;20057;-59
2023/07/01 09:12:15;;;;;;;1.00;0.20;;;18.30;99.90;;;;;;4861378;29;20045;-60
2023/07/01 09:15:15;;;;;;;1.55;0.63;;;18.20;99.90;;;;;;4855492;29;20045;-60
2023/07/01 09:17:43;;;;;;;2.00;0.70;;;18.20;99.90;;;;;;4873348;29;20060;-61
2023/07/01 09:20:13;;;;;;;1.05;0.30;;;18.20;99.90;;;;;;4854539;29;20049;-59
2023/07/01 09:22:43;;;;;;;1.30;0.32;;;18.10;99.90;;;;;;4863900;29;20057;-60
2023/07/01 09:25:26;;;;;;;1.42;0.25;;;18.10;99.90;;;;;;4856030;29;20049;-59
2023/07/01 09:27:54;;;;;;;0.57;0.40;;;18.10;99.90;;;;;;4855969;29;20052;-62
2023/07/01 09:30:24;;;;;;;1.13;0.30;;;18.00;99.90;;;;;;4853382;29;20053;-60
2023/07/01 09:33:11;;;;;;;1.95;0.45;;;18.00;99.90;;;;;;4845937;29;20050;-65
2023/07/01 09:35:43;;;;;;;2.00;0.50;;;18.00;99.90;;;;;;4855892;29;20065;-60
2023/07/01 09:38:13;;;;;;;3.00;0.43;;;18.10;99.90;;;;;;4838822;29;20065;-60
2023/07/01 09:40:40;;;;;;;2.15;0.40;;;18.00;99.90;;;;;;4846654;29;20254;-61
2023/07/01 09:43:08;;;;;;;2.50;0.30;;;18.10;99.90;;;;;;4851041;29;20548;-59
2023/07/01 09:45:36;;;;;;;3.38;0.40;;;18.10;99.90;;;;;;4845660;29;20057;-60
2023/07/01 09:48:13;;;;;;;3.53;0.40;;;18.10;99.90;;;;;;4844356;29;20048;-59
2023/07/01 09:50:41;;;;;;;2.75;0.20;;;17.90;99.90;;;;;;4848333;29;20049;-59
2023/07/01 09:53:24;;;;;;;9.75;0.70;;;17.80;99.90;;;;;;4852584;29;20204;-60
2023/07/01 09:55:51;;;;;;;1.80;0.43;;;17.80;99.90;;;;;;4873465;29;20049;-60
2023/07/01 09:58:20;;;;;;;3.42;0.57;;;18.00;99.90;;;;;;4859203;29;20049;-59
2023/07/01 10:00:48;;;;;;;0.77;0.28;;;18.20;99.90;;;;;;4854114;29;20050;-59
2023/07/01 10:03:16;;;;;;;1.33;0.20;;;18.30;99.90;;;;;;4852733;29;20604;-60
2023/07/01 10:05:46;;;;;;;1.58;0.30;;;18.30;99.90;;;;;;4846142;29;20219;-61
2023/07/01 10:08:14;;;;;;;0.38;0.30;;;18.30;99.90;;;;;;4855902;29;20061;-60
2023/07/01 10:10:43;;;;;;;3.10;0.20;;;18.20;99.90;;;;;;4847333;29;20054;-59
2023/07/01 10:13:12;;;;;;;0.30;0.20;;;18.20;99.90;;;;;;4845694;29;20056;-60
2023/07/01 10:15:40;;;;;;;1.85;0.20;;;18.00;99.90;;;;;;4850618;29;20057;-60
2023/07/01 10:18:21;;;;;;;2.40;0.40;;;17.90;99.90;;;;;;4847598;29;20049;-63
2023/07/01 10:20:50;;;;;;;1.52;0.40;;;17.80;99.90;;;;;;4854929;29;20075;-59
2023/07/01 10:23:19;;;;;;;0.20;0.20;;;17.70;99.90;;;;;;4850789;29;20045;-59
2023/07/01 10:25:47;;;;;;;0.40;0.32;;;17.70;99.90;;;;;;4846809;29;20053;-60
2023/07/01 10:28:16;;;;;;;0.50;0.30;;;17.80;99.90;;;;;;4848717;29;20054;-59
2023/07/01 10:30:46;;;;;;;0.50;0.30;;;17.90;99.90;;;;;;4867779;29;20055;-59
2023/07/01 10:33:39;;;;;;;0.75;0.30;;;18.00;99.90;;;;;;4861025;29;20042;-60
2023/07/01 10:36:08;;;;;;;0.30;0.10;;;18.10;99.90;;;;;;4855194;29;20042;-61
2023/07/01 10:38:37;;;;;;;1.35;0.40;;;18.10;99.90;;;;;;4855225;29;20414;-60
2023/07/01 10:41:05;;;;;;;1.90;0.22;;;18.10;99.90;;;;;;4842285;29;20057;-60
2023/07/01 10:43:37;;;;;;;6.90;0.35;;;18.00;99.90;;;;;;4843668;29;20060;-59
2023/07/01 10:46:22;;;;;;;0.77;0.38;;;18.00;99.90;;;;;;4838791;29;20057;-60
2023/07/01 10:49:02;;;;;;;2.40;0.40;;;18.00;99.90;;;;;;4849349;29;20045;-59
2023/07/01 10:51:33;;;;;;;0.52;0.10;;;18.00;99.90;;;;;;4858706;29;20054;-60
2023/07/01 10:54:02;;;;;;;0.57;0.20;;;18.10;99.90;;;;;;4858535;29;20050;-60
2023/07/01 10:56:33;;;;;;;0.90;0.20;;;18.30;99.90;;;;;;4845229;29;20413;-59
2023/07/01 10:59:23;;;;;;;1.00;0.22;;;18.60;99.90;;;;;;4857998;29;20049;-60
2023/07/01 11:02:00;;;;;;;1.58;0.20;;;18.90;99.90;;;;;;4857402;29;20054;-64
2023/07/01 11:04:55;;;;;;;1.45;0.35;;;19.20;99.90;;;;;;4856964;29;20852;-61
2023/07/01 11:07:27;;;;;;;6.55;0.20;;;19.40;99.90;;;;;;4853837;29;20058;-63
2023/07/01 11:09:55;;;;;;;3.30;0.30;;;19.50;99.90;;;;;;4853476;29;20378;-61
2023/07/01 11:12:24;;;;;;;1.58;0.30;;;19.60;99.90;;;;;;4843153;29;20057;-65
2023/07/01 11:14:54;;;;;;;2.38;0.30;;;19.50;99.90;;;;;;4855090;29;20049;-62
2023/07/01 11:17:23;;;;;;;0.20;0.20;;;19.30;99.90;;;;;;4855788;29;20064;-61
2023/07/01 11:19:55;;;;;;;0.38;0.20;;;19.10;99.90;;;;;;4855980;29;20049;-63
2023/07/01 11:22:24;;;;;;;2.55;0.35;;;18.90;99.90;;;;;;4856560;29;20061;-60
2023/07/01 11:24:51;;;;;;;0.57;0.32;;;18.80;99.90;;;;;;4856651;29;20053;-61
2023/07/01 11:27:21;;;;;;;0.82;0.25;;;18.70;99.90;;;;;;4847860;29;20363;-61
2023/07/01 11:29:49;;;;;;;0.35;0.10;;;18.80;99.90;;;;;;4858862;29;20482;-60
2023/07/01 11:32:17;;;;;;;1.02;0.30;;;18.80;99.90;;;;;;4873669;29;20518;-59
2023/07/01 11:34:49;;;;;;;0.45;0.17;;;19.00;99.90;;;;;;4856550;29;20046;-61
2023/07/01 11:37:25;;;;;;;0.45;0.28;;;19.30;99.90;;;;;;4856970;29;20049;-60
2023/07/01 11:39:53;;;;;;;0.45;0.40;;;19.30;99.90;;;;;;4856400;29;20580;-61
2023/07/01 11:42:24;;;;;;;0.93;0.50;;;19.50;99.90;;;;;;4850050;29;20459;-68
2023/07/01 11:44:51;;;;;;;1.08;0.40;;;19.60;99.90;;;;;;4856636;29;20490;-61
2023/07/01 11:47:20;;;;;;;1.00;0.50;;;;;;;;;;4857752;29;20060;-68
2023/07/01 11:49:48;;;;;;;0.93;0.65;;;19.70;99.90;;;;;;4857666;29;20527;-59
2023/07/01 11:52:23;;;;;;;1.42;0.85;;;19.90;99.90;;;;;;4856779;29;20054;-59
2023/07/01 11:54:54;;;;;;;1.35;0.85;;;20.20;99.90;;;;;;4857535;29;20056;-60
2023/07/01 11:57:23;;;;;;;1.05;0.70;;;20.30;99.90;;;;;;4857084;29;20057;-63
2023/07/01 11:59:58;;;;;;;2.47;1.10;;;20.40;99.90;;;;;;4872447;29;20053;-59
2023/07/01 12:02:31;;;;;;;3.10;1.50;;;20.50;99.90;;;;;;4856609;29;20053;-59
2023/07/01 12:05:00;;;;;;;1.85;1.20;;;20.60;99.90;;;;;;4836967;29;20415;-60
2023/07/01 12:07:29;;;;;;;3.13;1.42;;;20.90;99.90;;;;;;4863255;29;20498;-65
2023/07/01 12:10:17;;;;;;;2.40;1.60;;;21.20;99.90;;;;;;4853940;29;20049;-60
2023/07/01 12:12:45;;;;;;;3.40;1.80;;;21.50;99.90;;;;;;4839440;29;20457;-61
2023/07/01 12:15:15;;;;;;;4.53;1.58;;;21.90;99.90;;;;;;4854382;29;20049;-60
2023/07/01 12:17:43;;;;;;;2.25;1.58;;;22.40;99.90;;;;;;4853640;29;20075;-61
2023/07/01 12:20:11;;;;;;;4.43;1.38;;;22.60;99.90;;;;;;4851241;29;20045;-61
2023/07/01 12:22:39;;;;;;;2.72;1.27;;;22.60;99.90;;;;;;4838418;29;20054;-60
2023/07/01 12:25:07;;;;;;;4.65;1.70;;;22.70;99.90;;;;;;4852463;29;20406;-60
2023/07/01 12:27:35;;;;;;;3.20;2.75;;;22.90;99.90;;;;;;4836755;29;20061;-59
2023/07/01 12:30:04;;;;;;;2.10;1.70;;;23.10;99.90;;;;;;4854492;29;20262;-59
2023/07/01 12:32:32;;;;;;;2.53;1.80;;;23.50;99.90;;;;;;4867999;29;20053;-59
2023/07/01 12:35:02;;;;;;;4.05;1.42;;;23.70;99.70;;;;;;4852772;29;20241;-59
2023/07/01 12:37:31;;;;;;;1.88;1.35;;;24.00;99.90;;;;;;4853801;29;20061;-60
2023/07/01 12:39:59;;;;;;;2.33;1.48;;;24.20;98.60;;;;;;4853789;29;20491;-58
2023/07/01 12:42:27;;;;;;;4.18;1.77;;;24.30;98.30;;;;;;4846983;29;20482;-61
2023/07/01 12:44:56;;;;;;;2.65;1.80;;;24.50;98.30;;;;;;4853507;29;20057;-61
2023/07/01 12:47:24;;;;;;;2.00;1.45;;;24.70;97.60;;;;;;4853328;29;20068;-60
2023/07/01 12:49:54;;;;;;;4.43;1.38;;;24.60;96.20;;;;;;4853794;29;20469;-61
2023/07/01 12:52:23;;;;;;;3.08;1.63;;;24.20;95.70;;;;;;4867356;29;20069;-60
2023/07/01 12:54:55;;;;;;;2.70;1.48;;;23.70;95.90;;;;;;4853476;29;20049;-60
2023/07/01 12:57:23;;;;;;;3.67;1.50;;;23.20;96.70;;;;;;4851859;29;20057;-60
2023/07/01 12:59:55;;;;;;;4.82;1.65;;;22.80;97.40;;;;;;4856191;29;20309;-59